首页
METAR-TAF:

METAR-TAF

机场 :

不伦瑞克, 德国

纬度: 52-18N, 经度: 010-27E, 海拔: 81米

当前天气观测

该预报发布于26分钟前的11:20 UTC
风速4节,风向,在东南南转西南之间变化
温度 15°C
湿度 63%
气压 1010 hPa
能见度10公里或以上
少量云层高于2800英尺
多云层高于4700英尺

METAR: EDVE 281120Z 17004KT 130V210 9999 FEW028 BKN047 15/08 Q1010

时间: 13:46 (11:46 UTC)

预报

该预报发布于46分钟前的11:00 UTC
预报有效从28日的 12点(UTC)到 28日的 21点(UTC)
风速5节,风向南转西南
能见度10公里或以上
散云层高于3000英尺

TAF: EDVE 281100Z 2812/2821 21005KT 9999 SCT030

超过4000个机场的气象观测和天气预报(METAR&TAF报告)。

可查询的气象台以黄色和红色小点在地图上表示。

将鼠标移到小点上方,可查看气象台名称。

然后点击查看天气观测和预报。

如需切换地图:点击带黑十字的绿色按钮放大地图;点击带横线的绿色按钮缩小地图;或者点击绿色箭头查看邻近地区的地图。


METAR-TAF: